This is the latest recevied weather packets stored in our database for station/object EA4IAJ-12. If no packets are shown the sender has not sent any weather packets the latest 1 day(s).
| Time | Temp. | Humidity | Pressure | Rain* | Wind** | Luminosity | Snow |
|---|---|---|---|---|---|---|---|
| 1778086831 | 24.44° C | 33% | 1040.4 hPa | - | - | - | - |
| 1778077838 | 26.11° C | 45% | 1051.1 hPa | - | - | - | - |
| 1778075136 | 25° C | 50% | 1047 hPa | - | - | - | - |
| 1778073335 | 27.78° C | 60% | 1059.8 hPa | - | - | - | - |
| 1778068832 | 27.78° C | 80% | 1061.1 hPa | - | - | - | - |
| 1778067031 | 23.89° C | 81% | 1047.3 hPa | - | - | - | - |
| 1778065230 | 24.44° C | 89% | 1050.8 hPa | - | - | - | - |
| 1778063429 | 26.11° C | 97% | 1057.1 hPa | - | - | - | - |
| 1778061628 | 23.33° C | 100% | 1046.2 hPa | - | - | - | - |
| 1778060739 | 22.78° C | 100% | 1045.1 hPa | - | - | - | - |
| 1778059838 | 21.11° C | 100% | 1037.6 hPa | - | - | - | - |
| 1778058938 | 20° C | 100% | 1034.6 hPa | - | - | - | - |
| 1778057137 | 18.33° C | 100% | 1027.9 hPa | - | - | - | - |
| 1778054435 | 17.22° C | 100% | 1022.5 hPa | - | - | - | - |
| 1778052634 | 16.67° C | 100% | 1020.7 hPa | - | - | - | - |
| 1778050833 | 14.44° C | 100% | 1013.4 hPa | - | - | - | - |
| 1778047231 | 7.78° C | 98% | 987.3 hPa | - | - | - | - |
| 1778045430 | 6.11° C | 91% | 981 hPa | - | - | - | - |
| 1778043629 | 7.22° C | 88% | 984.5 hPa | - | - | - | - |
| 1778042728 | 6.67° C | 84% | 982.4 hPa | - | - | - | - |
| 1778041828 | 6.67° C | 82% | 982.5 hPa | - | - | - | - |
| 1778040927 | 6.67° C | 79% | 981.3 hPa | - | - | - | - |
| 1778040027 | 6.67° C | 76% | 981 hPa | - | - | - | - |
| 1778039139 | 6.11° C | 72% | 978.5 hPa | - | - | - | - |
| 1778038238 | 6.11° C | 69% | 978.1 hPa | - | - | - | - |
* Rain since midnight (hover to see other rain measurements)
** Current wind speed in m/s (hover to see current wind gust speed)